createdAt,value
2023-08-19T00:00:01.018Z,97993.22
2023-08-19T00:05:03.870Z,98003.28
2023-08-19T00:10:06.301Z,97998.06
2023-08-19T00:15:08.895Z,98008.38
2023-08-19T00:20:11.837Z,98002.59
2023-08-19T00:25:13.312Z,98007.22
2023-08-19T00:30:14.823Z,98000.16
2023-08-19T00:35:16.442Z,98003.09
2023-08-19T00:40:17.986Z,97985.44
2023-08-19T00:45:19.551Z,97993.00
2023-08-19T00:50:21.515Z,97988.31
2023-08-19T00:55:23.056Z,97980.94
2023-08-19T01:00:24.766Z,97981.44
2023-08-19T01:05:33.174Z,97975.69
2023-08-19T01:10:49.101Z,97965.28
2023-08-19T01:16:10.694Z,97970.94
2023-08-19T01:21:12.783Z,97964.97
2023-08-19T01:26:14.373Z,97965.78
2023-08-19T01:31:16.672Z,97966.59
2023-08-19T01:36:33.822Z,97963.38
2023-08-19T01:41:37.334Z,97974.53
2023-08-19T01:46:38.791Z,97972.03
2023-08-19T01:51:40.343Z,97965.53
2023-08-19T01:56:41.846Z,97956.06
2023-08-19T02:01:43.339Z,97959.13
2023-08-19T02:06:45.871Z,97958.88
2023-08-19T02:11:47.340Z,97960.50
2023-08-19T02:16:48.832Z,97958.38
2023-08-19T02:21:50.319Z,97955.41
2023-08-19T02:26:52.468Z,97958.13
2023-08-19T02:31:54.054Z,97952.69
2023-08-19T02:36:55.567Z,97957.06
2023-08-19T02:41:57.021Z,97962.50
2023-08-19T02:46:58.822Z,97955.41
2023-08-19T02:52:00.657Z,97959.69
2023-08-19T02:57:03.435Z,97950.38
2023-08-19T03:02:05.011Z,97949.22
2023-08-19T03:07:06.572Z,97945.16
2023-08-19T03:12:08.695Z,97950.81
2023-08-19T03:17:10.534Z,97958.97
2023-08-19T03:22:12.116Z,97964.97
2023-08-19T03:27:13.642Z,97955.75
2023-08-19T03:32:15.553Z,97969.91
2023-08-19T03:37:17.034Z,97970.94
2023-08-19T03:42:19.304Z,97970.72
2023-08-19T03:47:21.021Z,97970.72
2023-08-19T03:52:24.923Z,97974.53
2023-08-19T03:57:26.456Z,97979.09
2023-08-19T04:02:28.678Z,97983.72
2023-08-19T04:07:30.679Z,97985.38
2023-08-19T04:12:32.498Z,97984.78
2023-08-19T04:17:35.663Z,97990.47
2023-08-19T04:22:38.345Z,98001.31
2023-08-19T04:27:39.859Z,98008.41
2023-08-19T04:32:43.146Z,98010.63
2023-08-19T04:37:44.955Z,98009.56
2023-08-19T04:42:47.531Z,98013.44
2023-08-19T04:47:50.001Z,98003.16
2023-08-19T04:52:52.341Z,98011.63
2023-08-19T04:57:54.104Z,98011.38
2023-08-19T05:02:56.002Z,98020.09
2023-08-19T05:07:58.153Z,98028.81
2023-08-19T05:12:59.954Z,98035.41
2023-08-19T05:18:02.300Z,98033.84
2023-08-19T05:23:04.046Z,98033.41
2023-08-19T05:28:05.719Z,98035.94
2023-08-19T05:33:07.255Z,98046.06
2023-08-19T05:38:08.742Z,98037.44
2023-08-19T05:43:10.210Z,98039.75
2023-08-19T05:48:11.777Z,98044.47
2023-08-19T05:53:13.201Z,98040.34
2023-08-19T05:58:16.088Z,98041.78
2023-08-19T06:03:17.624Z,98040.25
2023-08-19T06:08:19.233Z,98044.22
2023-08-19T06:13:20.606Z,98053.59
2023-08-19T06:18:22.649Z,98049.63
2023-08-19T06:23:24.569Z,98055.44
2023-08-19T06:28:26.131Z,98055.88
2023-08-19T06:33:28.352Z,98056.25
2023-08-19T06:38:31.567Z,98050.63
2023-08-19T06:43:33.933Z,98047.16
2023-08-19T06:48:36.210Z,98038.50
2023-08-19T06:53:38.023Z,98036.38
2023-08-19T06:58:44.944Z,98044.09
2023-08-19T07:03:46.820Z,98054.53
2023-08-19T07:08:48.961Z,98056.25
2023-08-19T07:13:50.744Z,98067.19
2023-08-19T07:18:54.655Z,98064.81
2023-08-19T07:24:01.824Z,98058.03
2023-08-19T07:29:03.638Z,98070.41
2023-08-19T07:34:05.078Z,98083.81
2023-08-19T07:39:06.495Z,98078.94
2023-08-19T07:44:08.012Z,98092.31
2023-08-19T07:49:09.483Z,98095.88
2023-08-19T07:54:10.961Z,98101.09
2023-08-19T07:59:12.445Z,98101.69
2023-08-19T08:04:13.923Z,98105.81
2023-08-19T08:09:15.967Z,98092.69
2023-08-19T08:14:17.651Z,98092.16
2023-08-19T08:19:19.294Z,98110.72
2023-08-19T08:24:21.987Z,98102.25
2023-08-19T08:29:23.547Z,98095.94
2023-08-19T08:34:25.070Z,98095.94
2023-08-19T08:39:26.650Z,98088.00
2023-08-19T08:44:28.511Z,98085.53
2023-08-19T08:49:30.780Z,98075.09
2023-08-19T08:54:34.281Z,98084.34
2023-08-19T08:59:35.732Z,98093.88
2023-08-19T09:04:39.254Z,98091.94
2023-08-19T09:09:42.152Z,98091.03
2023-08-19T09:14:45.218Z,98087.41
2023-08-19T09:19:46.696Z,98091.75
2023-08-19T09:24:49.100Z,98088.97
2023-08-19T09:29:51.633Z,98096.28
2023-08-19T09:35:08.722Z,98085.06
2023-08-19T09:40:12.909Z,98085.59
2023-08-19T09:45:19.788Z,98084.44
2023-08-19T09:50:23.326Z,98083.88
2023-08-19T09:55:26.568Z,98084.75
2023-08-19T10:00:29.330Z,98092.34
2023-08-19T10:05:34.019Z,98080.47
2023-08-19T10:10:40.073Z,98080.66
2023-08-19T10:15:44.814Z,98080.56
2023-08-19T10:20:53.510Z,98075.28
2023-08-19T10:25:55.235Z,98093.59
2023-08-19T10:31:10.062Z,98079.28
2023-08-19T10:36:19.378Z,98088.19
2023-08-19T10:41:28.545Z,98087.88
2023-08-19T10:46:44.246Z,98082.53
2023-08-19T10:52:07.056Z,98079.97
2023-08-19T10:57:18.809Z,98090.59
2023-08-19T11:02:20.275Z,98088.34
2023-08-19T11:07:22.303Z,98080.00
2023-08-19T11:12:24.763Z,98078.25
2023-08-19T11:17:33.495Z,98078.09
2023-08-19T11:23:01.444Z,98079.63
2023-08-19T11:28:03.373Z,98091.69
2023-08-19T11:33:05.351Z,98081.91
2023-08-19T11:38:16.250Z,98075.72
2023-08-19T11:43:22.078Z,98081.69
2023-08-19T11:48:23.576Z,98085.13
2023-08-19T11:53:26.934Z,98075.34
2023-08-19T11:58:41.714Z,98075.59
2023-08-19T12:03:45.684Z,98081.75
2023-08-19T12:08:50.510Z,98082.16
2023-08-19T12:13:52.070Z,98072.13
2023-08-19T12:18:53.518Z,98088.75
2023-08-19T12:23:55.065Z,98084.50
2023-08-19T12:28:56.950Z,98082.41
2023-08-19T12:33:58.415Z,98083.91
2023-08-19T12:38:59.902Z,98068.34
2023-08-19T12:44:01.420Z,98073.16
2023-08-19T12:49:04.833Z,98067.97
2023-08-19T12:54:07.983Z,98067.78
2023-08-19T12:59:09.504Z,98064.81
2023-08-19T13:04:11.036Z,98071.81
2023-08-19T13:09:12.748Z,98070.16
2023-08-19T13:14:14.228Z,98072.75
2023-08-19T13:19:15.702Z,98061.34
2023-08-19T13:24:17.506Z,98069.38
2023-08-19T13:29:18.981Z,98071.81
2023-08-19T13:34:20.432Z,98078.50
2023-08-19T13:39:21.875Z,98077.06
2023-08-19T13:44:26.836Z,98069.38
2023-08-19T13:49:28.298Z,98061.69
2023-08-19T13:54:29.794Z,98061.47
2023-08-19T13:59:31.267Z,98066.66
2023-08-19T14:04:32.741Z,98063.16
2023-08-19T14:09:34.255Z,98054.44
2023-08-19T14:14:38.411Z,98046.09
2023-08-19T14:19:40.914Z,98050.72
2023-08-19T14:24:42.381Z,98044.78
2023-08-19T14:29:43.830Z,98046.16
2023-08-19T14:34:45.438Z,98055.41
2023-08-19T14:39:46.940Z,98040.91
2023-08-19T14:44:48.406Z,98047.88
2023-08-19T14:49:51.549Z,98040.50
2023-08-19T14:54:53.306Z,98036.94
2023-08-19T14:59:55.088Z,98045.59
2023-08-19T15:04:56.651Z,98047.09
2023-08-19T15:09:58.173Z,98046.53
2023-08-19T15:14:59.633Z,98051.78
2023-08-19T15:20:01.143Z,98053.88
2023-08-19T15:25:03.325Z,98049.06
2023-08-19T15:30:06.650Z,98052.16
2023-08-19T15:35:08.730Z,98054.31
2023-08-19T15:40:11.091Z,98055.47
2023-08-19T15:45:13.021Z,98053.94
2023-08-19T15:50:15.823Z,98047.41
2023-08-19T15:55:17.457Z,98047.31
2023-08-19T16:00:19.140Z,98047.69
2023-08-19T16:05:20.774Z,98047.53
2023-08-19T16:10:22.617Z,98049.56
2023-08-19T16:15:24.145Z,98052.22
2023-08-19T16:20:25.640Z,98056.50
2023-08-19T16:25:27.345Z,98053.63
2023-08-19T16:30:28.894Z,98062.69
2023-08-19T16:35:30.482Z,98060.75
2023-08-19T16:40:34.542Z,98044.88
2023-08-19T16:45:36.034Z,98059.75
2023-08-19T16:50:37.489Z,98062.59
2023-08-19T16:55:38.949Z,98070.16
2023-08-19T17:00:40.480Z,98075.56
2023-08-19T17:05:44.331Z,98072.16
2023-08-19T17:10:45.811Z,98069.28
2023-08-19T17:15:53.379Z,98073.44
2023-08-19T17:20:58.153Z,98070.69
2023-08-19T17:25:59.750Z,98082.75
2023-08-19T17:31:06.183Z,98081.84
2023-08-19T17:36:07.816Z,98083.66
2023-08-19T17:41:17.910Z,98084.59
2023-08-19T17:46:19.460Z,98101.22
2023-08-19T17:51:20.965Z,98095.03
2023-08-19T17:56:22.500Z,98095.72
2023-08-19T18:01:24.029Z,98104.06
2023-08-19T18:06:25.683Z,98103.09
2023-08-19T18:11:27.170Z,98103.69
2023-08-19T18:16:28.658Z,98099.16
2023-08-19T18:21:30.231Z,98104.47
2023-08-19T18:26:31.679Z,98117.19
2023-08-19T18:31:33.162Z,98109.63
2023-08-19T18:36:34.647Z,98114.69
2023-08-19T18:41:36.166Z,98112.84
2023-08-19T18:46:37.685Z,98128.53
2023-08-19T18:51:39.135Z,98132.50
2023-08-19T18:56:40.583Z,98135.59
2023-08-19T19:01:42.191Z,98140.31
2023-08-19T19:06:43.804Z,98144.25
2023-08-19T19:11:45.268Z,98154.69
2023-08-19T19:16:46.850Z,98153.91
2023-08-19T19:21:48.379Z,98156.69
2023-08-19T19:26:50.982Z,98155.94
2023-08-19T19:31:52.445Z,98168.84
2023-08-19T19:36:54.047Z,98162.00
2023-08-19T19:41:55.601Z,98162.88
2023-08-19T19:46:57.075Z,98164.28
2023-08-19T19:51:58.564Z,98167.28
2023-08-19T19:57:00.078Z,98165.94
2023-08-19T20:02:01.554Z,98173.31
2023-08-19T20:07:03.201Z,98176.09
2023-08-19T20:12:04.886Z,98177.19
2023-08-19T20:17:06.429Z,98171.97
2023-08-19T20:22:08.016Z,98175.81
2023-08-19T20:27:10.019Z,98183.44
2023-08-19T20:32:12.069Z,98179.34
2023-08-19T20:37:13.605Z,98175.22
2023-08-19T20:42:15.086Z,98180.97
2023-08-19T20:47:16.633Z,98186.16
2023-08-19T20:52:18.234Z,98183.69
2023-08-19T20:57:19.755Z,98180.13
2023-08-19T21:02:23.072Z,98173.03
2023-08-19T21:07:24.589Z,98174.38
2023-08-19T21:12:26.446Z,98167.81
2023-08-19T21:17:28.133Z,98172.47
2023-08-19T21:22:29.744Z,98179.56
2023-08-19T21:27:31.231Z,98171.91
2023-08-19T21:32:32.704Z,98176.00
2023-08-19T21:37:34.324Z,98172.13
2023-08-19T21:42:36.921Z,98181.16
2023-08-19T21:47:38.620Z,98174.84
2023-08-19T21:52:40.211Z,98175.09
2023-08-19T21:57:41.686Z,98177.28
2023-08-19T22:02:43.424Z,98182.97
2023-08-19T22:07:45.046Z,98190.31
2023-08-19T22:12:46.544Z,98189.47
2023-08-19T22:17:48.099Z,98181.00
2023-08-19T22:22:49.594Z,98186.72
2023-08-19T22:27:51.506Z,98184.81
2023-08-19T22:32:53.035Z,98188.63
2023-08-19T22:37:54.492Z,98192.97
2023-08-19T22:42:55.940Z,98191.56
2023-08-19T22:47:57.472Z,98200.50
2023-08-19T22:52:58.971Z,98207.53
2023-08-19T22:58:00.427Z,98205.03
2023-08-19T23:03:01.903Z,98194.41
2023-08-19T23:08:03.641Z,98192.78
2023-08-19T23:13:05.098Z,98194.50
2023-08-19T23:18:06.490Z,98189.66
2023-08-19T23:23:07.962Z,98191.03
2023-08-19T23:28:10.068Z,98203.31
2023-08-19T23:33:11.514Z,98200.56
2023-08-19T23:38:13.114Z,98195.34
2023-08-19T23:43:14.687Z,98195.59
2023-08-19T23:48:16.359Z,98181.72
2023-08-19T23:53:21.741Z,98169.97
2023-08-19T23:58:25.115Z,98178.72
